Time;durP1;ratioP1;P1;durP2;ratioP2;P2;SDS_P1;SDS_P2;PMS_P1;PMS_P2;Temp;Humidity;BMP_temperature;BMP_pressure;BME280_temperature;BME280_humidity;BME280_pressure;Samples;Min_cycle;Max_cycle;Signal;HPM_P1;HPM_P2
2022/05/02 00:00:20;;;;;;;19.60;17.70;;;;;;;4.00;93.76;102095.91;1040518;28;20296;-78
2022/05/02 00:00:52;;;;;;;20.95;16.50;;;;;;;4.03;93.84;102095.63;1038220;28;20750;-78
2022/05/02 00:01:23;;;;;;;17.88;16.27;;;;;;;4.01;94.24;102094.94;1031032;28;20301;-78
2022/05/02 00:01:55;;;;;;;16.52;14.98;;;;;;;4.05;94.04;102095.47;1030417;28;20770;-78
2022/05/02 00:02:27;;;;;;;18.42;16.70;;;;;;;4.04;94.13;102092.00;1034915;28;20307;-79
2022/05/02 00:02:59;;;;;;;16.63;14.90;;;;;;;4.07;94.38;102084.78;1040112;28;20295;-78
2022/05/02 00:03:31;;;;;;;17.17;15.45;;;;;;;4.05;94.12;102092.84;1043678;28;20294;-79
2022/05/02 00:04:03;;;;;;;16.30;14.70;;;;;;;4.10;94.08;102089.75;1043250;28;20291;-79
2022/05/02 00:04:35;;;;;;;18.33;16.38;;;;;;;4.10;94.75;102089.75;1043516;28;20287;-78
2022/05/02 00:05:07;;;;;;;22.92;16.50;;;;;;;4.11;94.46;102096.69;1035791;28;20307;-78
2022/05/02 00:05:39;;;;;;;18.35;16.45;;;;;;;4.08;95.13;102091.72;1035178;28;20305;-78
2022/05/02 00:06:11;;;;;;;21.23;15.98;;;;;;;3.91;94.52;102088.84;1035125;28;20296;-78
2022/05/02 00:06:42;;;;;;;16.75;15.05;;;;;;;3.88;94.66;102085.69;1032220;28;20305;-79
2022/05/02 00:07:14;;;;;;;16.17;14.60;;;;;;;3.87;94.50;102095.38;1038347;28;20793;-78
2022/05/02 00:07:46;;;;;;;15.93;14.38;;;;;;;3.85;94.42;102088.59;1035490;28;20674;-79
2022/05/02 00:08:17;;;;;;;16.58;14.23;;;;;;;3.83;94.30;102091.34;1029235;28;20289;-79
2022/05/02 00:08:49;;;;;;;16.90;15.23;;;;;;;3.87;94.37;102089.28;1035461;28;20296;-79
2022/05/02 00:09:20;;;;;;;19.60;17.42;;;;;;;3.88;94.59;102088.31;1031222;28;20293;-79
2022/05/02 00:09:52;;;;;;;16.38;14.35;;;;;;;3.89;94.28;102085.53;1036027;28;20289;-78
2022/05/02 00:10:24;;;;;;;16.55;14.95;;;;;;;3.88;94.29;102080.41;1039281;28;20812;-78
2022/05/02 00:10:55;;;;;;;18.63;16.70;;;;;;;3.59;94.04;102091.81;1038837;28;20303;-79
2022/05/02 00:11:27;;;;;;;18.52;16.70;;;;;;;3.69;94.60;102092.63;1043115;28;20306;-78
2022/05/02 00:11:58;;;;;;;19.33;17.42;;;;;;;3.66;95.31;102087.66;1039038;28;20369;-78
2022/05/02 00:12:30;;;;;;;18.35;16.50;;;;;;;3.41;95.20;102089.03;1039943;28;20310;-79
2022/05/02 00:13:02;;;;;;;17.58;15.75;;;;;;;3.56;95.57;102091.25;1043429;28;20306;-78
2022/05/02 00:13:34;;;;;;;18.48;16.27;;;;;;;3.56;95.72;102088.59;1035330;28;20799;-78
2022/05/02 00:14:06;;;;;;;19.27;17.45;;;;;;;3.63;95.49;102087.09;1040662;28;20374;-78
2022/05/02 00:14:37;;;;;;;21.55;16.92;;;;;;;3.72;95.49;102087.06;1039044;28;20394;-78
2022/05/02 00:15:10;;;;;;;17.05;15.30;;;;;;;3.62;95.21;102088.06;1039757;28;20307;-78
2022/05/02 00:15:41;;;;;;;16.75;15.15;;;;;;;3.53;95.51;102080.97;1043617;28;20291;-79
2022/05/02 00:16:13;;;;;;;18.33;16.52;;;;;;;3.46;95.55;102085.16;1043375;28;20813;-79
2022/05/02 00:16:44;;;;;;;19.90;18.10;;;;;;;3.41;96.16;102086.41;1043772;28;20712;-78
2022/05/02 00:17:16;;;;;;;18.98;16.98;;;;;;;3.54;95.71;102085.28;1044604;28;20291;-78
2022/05/02 00:17:57;;;;;;;17.67;15.77;;;;;;;3.64;95.47;102080.84;1043649;28;20784;-78
2022/05/02 00:18:49;;;;;;;19.17;16.42;;;;;;;3.75;95.32;102085.13;1037817;28;20304;-79
2022/05/02 00:19:20;;;;;;;;;;;;;;;3.75;95.40;102085.13;1043441;28;20318;-78
2022/05/02 00:19:52;;;;;;;15.85;14.13;;;;;;;3.74;95.06;102079.03;1044066;28;19943;-78
2022/05/02 00:20:24;;;;;;;15.55;14.00;;;;;;;3.76;94.94;102081.53;1041199;28;20307;-79
2022/05/02 00:20:55;;;;;;;15.40;13.65;;;;;;;3.81;94.66;102077.47;1043919;28;20342;-79
2022/05/02 00:21:28;;;;;;;15.52;13.68;;;;;;;3.74;95.01;102084.31;1036253;28;20783;-78
2022/05/02 00:21:59;;;;;;;15.75;14.10;;;;;;;3.84;94.52;102082.50;1029323;28;20294;-79
2022/05/02 00:22:31;;;;;;;17.13;15.32;;;;;;;3.80;94.70;102078.47;1027596;28;20302;-78
2022/05/02 00:23:05;;;;;;;15.32;13.52;;;;;;;3.83;94.81;102083.44;1028063;28;20293;-78
2022/05/02 00:23:36;;;;;;;25.30;16.05;;;;;;;3.86;94.64;102079.72;1030989;28;20704;-78
2022/05/02 00:24:09;;;;;;;19.48;15.57;;;;;;;3.84;94.50;102079.88;1032771;28;20289;-79
2022/05/02 00:24:40;;;;;;;21.75;16.63;;;;;;;3.94;94.72;102080.66;1040330;28;20303;-79
2022/05/02 00:25:12;;;;;;;19.35;17.05;;;;;;;3.97;94.88;102080.38;1043642;28;20310;-78
2022/05/02 00:25:44;;;;;;;21.27;15.80;;;;;;;4.00;94.42;102080.09;1039807;28;20310;-78
2022/05/02 00:26:15;;;;;;;16.80;15.07;;;;;;;3.91;94.38;102075.69;1039186;28;20303;-79
2022/05/02 00:26:47;;;;;;;16.85;14.90;;;;;;;3.85;94.46;102078.06;1028830;28;20294;-78
2022/05/02 00:27:18;;;;;;;22.25;16.02;;;;;;;3.73;94.08;102077.38;1033696;28;20292;-78
2022/05/02 00:27:50;;;;;;;15.55;13.88;;;;;;;3.53;94.04;102070.44;1034176;28;20850;-79
2022/05/02 00:28:22;;;;;;;16.88;15.15;;;;;;;3.69;94.03;102070.72;1033310;28;20297;-79
2022/05/02 00:28:53;;;;;;;17.42;15.60;;;;;;;3.69;94.13;102068.09;1039763;28;20296;-78
2022/05/02 00:29:25;;;;;;;21.60;16.85;;;;;;;3.73;94.61;102070.28;1039075;28;20311;-79
2022/05/02 00:29:56;;;;;;;21.55;16.42;;;;;;;3.45;94.38;102072.94;1039231;28;20296;-79
2022/05/02 00:30:29;;;;;;;18.23;16.15;;;;;;;3.31;94.62;102069.78;1035117;28;20408;-79
2022/05/02 00:31:00;;;;;;;18.73;16.15;;;;;;;3.30;95.07;102070.75;1031141;28;20791;-78
2022/05/02 00:31:32;;;;;;;20.15;16.65;;;;;;;3.55;95.34;102063.22;1031300;28;20316;-79
2022/05/02 00:32:04;;;;;;;18.05;15.70;;;;;;;3.63;95.28;102066.84;1035525;28;20368;-78
2022/05/02 00:32:36;;;;;;;16.02;14.40;;;;;;;3.61;95.18;102068.78;1039945;28;20790;-78
2022/05/02 00:33:08;;;;;;;20.10;16.55;;;;;;;3.45;95.09;102071.16;1039250;28;20303;-79
2022/05/02 00:33:39;;;;;;;18.30;16.35;;;;;;;3.29;95.30;102069.09;1038949;28;20315;-79
2022/05/02 00:34:12;;;;;;;18.67;16.77;;;;;;;3.33;95.63;102067.84;1039089;28;20300;-79
2022/05/02 00:34:44;;;;;;;18.70;16.50;;;;;;;3.47;95.51;102060.47;1031976;28;20309;-78
2022/05/02 00:35:16;;;;;;;19.50;15.90;;;;;;;3.64;95.47;102062.41;1030108;28;20779;-79
2022/05/02 00:35:47;;;;;;;24.92;17.50;;;;;;;3.60;95.34;102068.94;1031403;28;20301;-79
2022/05/02 00:36:19;;;;;;;21.85;16.15;;;;;;;3.72;94.71;102065.16;1029153;28;20312;-78
2022/05/02 00:36:50;;;;;;;22.67;16.20;;;;;;;3.70;95.26;102067.94;1032582;28;20347;-78
2022/05/02 00:37:22;;;;;;;18.13;15.85;;;;;;;3.81;94.88;102064.31;1043676;28;20441;-78
2022/05/02 00:37:54;;;;;;;17.58;15.68;;;;;;;3.69;94.71;102060.19;1039633;28;20697;-78
2022/05/02 00:38:26;;;;;;;22.55;16.77;;;;;;;3.48;94.77;102068.25;1034962;28;20703;-78
2022/05/02 00:38:57;;;;;;;18.55;15.30;;;;;;;3.56;95.00;102065.75;1031160;28;20838;-79
2022/05/02 00:39:29;;;;;;;17.00;15.40;;;;;;;3.70;94.94;102067.13;1031510;28;20308;-79
2022/05/02 00:40:00;;;;;;;18.13;16.30;;;;;;;3.76;94.37;102065.72;1031462;28;20317;-78
2022/05/02 00:40:32;;;;;;;16.42;14.73;;;;;;;3.76;93.94;102058.63;1036167;28;20304;-78
2022/05/02 00:41:04;;;;;;;17.10;15.32;;;;;;;3.57;93.91;102056.06;1042991;28;20444;-78
2022/05/02 00:41:35;;;;;;;15.77;14.00;;;;;;;3.55;93.62;102064.06;1043408;28;20299;-78
2022/05/02 00:42:07;;;;;;;15.68;14.18;;;;;;;3.62;93.60;102056.44;1043917;28;20692;-79
2022/05/02 00:42:39;;;;;;;21.15;15.32;;;;;;;3.66;93.45;102057.84;1043632;28;20310;-78
2022/05/02 00:43:11;;;;;;;15.20;13.60;;;;;;;3.68;93.72;102053.25;1039397;28;20662;-78
2022/05/02 00:43:42;;;;;;;22.73;14.48;;;;;;;3.65;93.54;102059.63;1037008;28;20308;-78
2022/05/02 00:44:14;;;;;;;15.40;13.77;;;;;;;3.49;93.96;102063.81;1035444;28;20364;-79
2022/05/02 00:44:46;;;;;;;13.73;12.35;;;;;;;3.56;93.93;102059.63;1036128;28;20288;-78
2022/05/02 00:45:19;;;;;;;15.75;14.07;;;;;;;3.64;93.79;102057.16;1039497;28;20765;-78
2022/05/02 00:45:51;;;;;;;15.00;12.18;;;;;;;3.63;93.92;102055.47;1032309;28;20313;-78
2022/05/02 00:46:24;;;;;;;13.77;12.25;;;;;;;3.54;93.90;102048.41;1039028;28;20302;-78
2022/05/02 00:46:56;;;;;;;13.57;12.23;;;;;;;3.44;94.17;102058.13;1035320;28;20742;-79
2022/05/02 00:47:28;;;;;;;13.23;11.93;;;;;;;3.31;94.16;102061.88;1036322;28;20358;-79
2022/05/02 00:47:59;;;;;;;12.98;11.52;;;;;;;3.35;93.83;102063.25;1043055;28;20303;-78
2022/05/02 00:48:31;;;;;;;13.80;12.35;;;;;;;3.23;94.34;102059.09;1043627;28;20287;-78
2022/05/02 00:49:02;;;;;;;15.23;13.73;;;;;;;3.05;93.99;102055.50;1043376;28;20670;-78
2022/05/02 00:49:34;;;;;;;13.55;12.32;;;;;;;3.13;94.77;102058.25;1043733;28;20432;-78
2022/05/02 00:50:07;;;;;;;15.23;13.70;;;;;;;3.19;94.84;102052.44;1043955;28;20299;-78
2022/05/02 00:50:43;;;;;;;14.30;12.93;;;;;;;3.19;94.66;102052.44;1043199;28;20313;-78
2022/05/02 00:51:16;;;;;;;15.32;13.13;;;;;;;3.26;94.65;102048.28;1039267;28;20674;-78
2022/05/02 00:51:48;;;;;;;14.75;13.25;;;;;;;3.32;94.78;102058.28;1034883;28;20438;-78
2022/05/02 00:52:20;;;;;;;15.32;13.90;;;;;;;3.33;94.73;102054.69;1035611;28;20686;-78
2022/05/02 00:52:52;;;;;;;15.13;13.70;;;;;;;3.33;94.83;102054.69;1036290;28;20297;-78
2022/05/02 00:53:24;;;;;;;16.80;14.88;;;;;;;3.13;95.28;102050.38;1040828;28;20299;-78
2022/05/02 00:53:56;;;;;;;20.02;16.58;;;;;;;3.03;95.09;102053.00;1042379;28;20291;-77
2022/05/02 00:54:28;;;;;;;17.27;15.38;;;;;;;3.14;95.62;102048.56;1044621;28;20797;-78
2022/05/02 00:55:00;;;;;;;17.08;15.32;;;;;;;3.14;95.46;102049.41;1044789;28;20341;-78
2022/05/02 00:55:32;;;;;;;22.45;15.65;;;;;;;3.12;95.17;102053.97;1041458;28;20299;-77
2022/05/02 00:56:06;;;;;;;17.42;15.63;;;;;;;3.16;95.56;102044.81;1040483;28;20292;-78
2022/05/02 00:56:38;;;;;;;16.38;14.70;;;;;;;3.20;95.60;102048.84;1036295;28;20355;-78
2022/05/02 00:57:13;;;;;;;15.27;13.88;;;;;;;3.00;95.16;102047.16;1037361;28;20288;-78
2022/05/02 00:58:04;;;;;;;17.83;13.65;;;;;;;3.05;95.34;102042.34;1038004;28;20334;-77
2022/05/02 00:58:36;;;;;;;17.45;15.48;;;;;;;2.89;95.71;102047.28;1036516;28;20813;-77
2022/05/02 00:59:11;;;;;;;15.02;13.55;;;;;;;3.09;95.71;102054.25;1036118;28;20277;-78
2022/05/02 00:59:43;;;;;;;15.30;13.65;;;;;;;3.13;95.42;102046.91;1031908;28;20316;-78
2022/05/02 01:00:15;;;;;;;16.42;14.40;;;;;;;3.29;95.34;102053.28;1030771;28;20305;-78
2022/05/02 01:00:48;;;;;;;16.10;13.48;;;;;;;3.29;95.01;102047.19;1028736;28;20345;-78
2022/05/02 01:01:20;;;;;;;15.43;13.80;;;;;;;3.22;95.01;102046.91;1034024;28;20301;-78
2022/05/02 01:01:52;;;;;;;13.73;12.40;;;;;;;3.25;94.81;102051.88;1041338;28;20284;-78
2022/05/02 01:02:24;;;;;;;14.82;13.43;;;;;;;3.35;94.56;102051.91;1044427;28;20332;-78
2022/05/02 01:02:56;;;;;;;16.10;14.50;;;;;;;3.34;94.66;102044.97;1044651;28;20299;-78
2022/05/02 01:03:28;;;;;;;18.98;13.65;;;;;;;3.23;94.26;102055.63;1044211;28;20306;-78
2022/05/02 01:04:00;;;;;;;15.18;13.70;;;;;;;3.24;94.26;102050.22;1043897;28;20346;-78
2022/05/02 01:04:32;;;;;;;15.95;13.73;;;;;;;3.03;94.15;102050.38;1039587;28;20786;-78
2022/05/02 01:05:04;;;;;;;15.02;12.95;;;;;;;2.93;94.33;102051.31;1040250;28;20380;-78
2022/05/02 01:07:08;;;;;;;15.75;13.95;;;;;;;2.81;94.24;102047.16;1043772;28;20295;-78
2022/05/02 01:07:22;;;;;;;15.45;13.48;;;;;;;2.89;95.32;102049.91;1044333;28;20296;-78
2022/05/02 01:07:54;;;;;;;16.13;13.50;;;;;;;3.08;94.70;102049.94;1039730;28;20682;-78
2022/05/02 01:08:28;;;;;;;15.65;13.48;;;;;;;3.15;94.98;102051.06;1035688;28;20315;-78
2022/05/02 01:09:00;;;;;;;15.20;13.60;;;;;;;3.26;94.82;102047.44;1038375;28;20795;-77
2022/05/02 01:09:32;;;;;;;17.92;13.48;;;;;;;3.25;94.63;102045.78;1038196;28;20311;-78
2022/05/02 01:10:04;;;;;;;15.43;13.85;;;;;;;2.97;94.42;102043.00;1035780;28;20959;-78
2022/05/02 01:10:36;;;;;;;19.00;14.73;;;;;;;2.76;94.65;102044.94;1036782;28;20307;-78
2022/05/02 01:11:08;;;;;;;19.70;16.13;;;;;;;2.73;95.34;102046.00;1036176;28;20316;-78
2022/05/02 01:11:40;;;;;;;17.73;15.02;;;;;;;2.73;95.74;102046.00;1040219;28;20308;-78
2022/05/02 01:12:17;;;;;;;19.13;14.55;;;;;;;2.95;95.53;102036.22;1040157;28;20302;-78
2022/05/02 01:12:48;;;;;;;16.98;13.30;;;;;;;3.05;95.58;102050.22;1041426;28;20879;-79
2022/05/02 01:13:40;;;;;;;16.85;13.82;;;;;;;3.07;95.43;102048.28;1039914;28;20717;-78
2022/05/02 01:14:11;;;;;;;15.80;12.68;;;;;;;3.16;95.34;102051.88;1038450;28;20303;-78
2022/05/02 01:14:52;;;;;;;12.60;11.38;;;;;;;3.01;94.80;102043.56;1040035;28;20311;-79
2022/05/02 01:15:23;;;;;;;17.02;13.13;;;;;;;3.12;94.97;102046.06;1039658;28;20303;-78
2022/05/02 01:15:55;;;;;;;15.98;13.05;;;;;;;3.04;95.14;102044.13;1035952;28;20045;-78
2022/05/02 01:16:28;;;;;;;18.92;17.02;;;;;;;2.88;95.26;102048.25;1033183;28;20399;-78
2022/05/02 01:17:01;;;;;;;18.98;14.60;;;;;;;2.96;95.45;102045.78;1032746;28;20344;-78
2022/05/02 01:17:33;;;;;;;17.85;13.40;;;;;;;2.88;95.49;102048.25;1032668;28;20695;-78
2022/05/02 01:18:04;;;;;;;15.55;13.57;;;;;;;2.96;95.44;102045.78;1035847;28;20297;-78
2022/05/02 01:18:37;;;;;;;16.13;14.52;;;;;;;3.10;95.51;102048.84;1028942;28;20308;-78
2022/05/02 01:19:08;;;;;;;19.33;14.20;;;;;;;3.05;94.92;102047.59;1030277;28;20289;-78
2022/05/02 01:19:40;;;;;;;16.13;14.38;;;;;;;3.04;95.42;102048.56;1036682;28;20301;-78
2022/05/02 01:20:14;;;;;;;19.00;15.68;;;;;;;2.83;95.47;102051.31;1036939;28;20636;-78
2022/05/02 01:20:46;;;;;;;16.88;15.05;;;;;;;2.59;95.88;102049.03;1037712;28;20296;-78
2022/05/02 01:21:22;;;;;;;17.55;15.57;;;;;;;2.41;96.20;102053.25;1039488;28;20660;-79
2022/05/02 01:21:57;;;;;;;17.55;15.27;;;;;;;2.35;96.09;102046.75;1041896;28;20302;-78
2022/05/02 01:22:28;;;;;;;16.33;14.68;;;;;;;2.58;96.49;102051.78;1040303;28;20284;-79
2022/05/02 01:23:00;;;;;;;18.65;14.30;;;;;;;2.60;96.13;102050.69;1036058;28;20289;-79
2022/05/02 01:23:31;;;;;;;16.75;13.48;;;;;;;2.70;96.83;102051.53;1032529;28;20378;-79
2022/05/02 01:24:03;;;;;;;15.60;13.98;;;;;;;2.69;96.12;102049.88;1036151;28;20785;-78
2022/05/02 01:24:39;;;;;;;16.85;14.20;;;;;;;2.70;96.44;102051.53;1039714;28;20304;-79
2022/05/02 01:25:11;;;;;;;14.60;13.15;;;;;;;2.94;95.95;102048.53;1038228;28;20308;-78
2022/05/02 01:25:43;;;;;;;16.58;14.95;;;;;;;2.93;96.00;102048.69;1035503;28;20297;-79
2022/05/02 01:26:14;;;;;;;18.27;15.95;;;;;;;2.94;95.72;102047.72;1031725;28;20286;-79
2022/05/02 01:26:46;;;;;;;15.15;13.70;;;;;;;2.93;95.73;102057.41;1028224;28;20302;-78
2022/05/02 01:27:18;;;;;;;19.63;15.50;;;;;;;2.70;95.51;102055.97;1031034;28;20309;-78
2022/05/02 01:27:49;;;;;;;21.13;14.75;;;;;;;2.59;96.62;102053.47;1036602;28;20293;-79
2022/05/02 01:28:21;;;;;;;26.15;15.73;;;;;;;2.69;96.27;102049.03;1039995;28;20700;-78
2022/05/02 01:28:55;;;;;;;16.38;14.68;;;;;;;2.94;96.42;102048.53;1036086;28;20383;-78
2022/05/02 01:29:27;;;;;;;18.13;15.13;;;;;;;3.08;96.36;102049.94;1040074;28;20801;-79
2022/05/02 01:29:58;;;;;;;17.05;15.27;;;;;;;3.12;95.65;102055.78;1026853;28;20377;-79
2022/05/02 01:30:33;;;;;;;15.95;14.32;;;;;;;2.92;95.91;102049.66;1026094;28;20298;-78
2022/05/02 01:31:05;;;;;;;15.75;14.15;;;;;;;2.93;95.89;102053.94;1028804;28;20340;-78
2022/05/02 01:31:36;;;;;;;16.70;15.00;;;;;;;2.98;95.61;102043.84;1028895;28;20294;-78
2022/05/02 01:32:11;;;;;;;16.67;13.90;;;;;;;2.86;95.55;102045.75;1037889;28;20311;-79
2022/05/02 01:32:43;;;;;;;15.60;13.95;;;;;;;2.92;95.72;102047.84;1041228;28;21140;-78
2022/05/02 01:33:14;;;;;;;15.63;14.20;;;;;;;2.99;95.53;102045.50;1044136;28;20299;-78
2022/05/02 01:33:47;;;;;;;15.13;13.68;;;;;;;2.95;95.53;102049.38;1041043;28;20670;-78
2022/05/02 01:34:19;;;;;;;16.08;14.38;;;;;;;2.81;95.60;102050.63;1041135;28;20990;-78
2022/05/02 01:34:50;;;;;;;17.73;15.23;;;;;;;2.91;95.21;102043.56;1036050;28;20686;-78
2022/05/02 01:35:23;;;;;;;16.40;14.70;;;;;;;2.90;95.37;102046.31;1036799;28;20668;-79
2022/05/02 01:35:54;;;;;;;17.88;16.00;;;;;;;2.79;95.09;102049.91;1040769;28;20284;-78
2022/05/02 01:36:26;;;;;;;17.35;14.35;;;;;;;2.58;95.26;102044.75;1044457;28;20304;-79
2022/05/02 01:36:57;;;;;;;17.25;15.45;;;;;;;2.53;96.06;102041.69;1040002;28;20288;-78
2022/05/02 01:37:29;;;;;;;18.77;17.08;;;;;;;2.68;96.27;102048.22;1040380;28;20300;-78
2022/05/02 01:38:00;;;;;;;16.63;14.93;;;;;;;2.82;95.80;102048.81;1035799;28;20312;-78
2022/05/02 01:38:33;;;;;;;18.02;16.38;;;;;;;2.91;95.68;102050.63;1040530;28;20347;-79
2022/05/02 01:39:04;;;;;;;19.63;16.25;;;;;;;2.97;95.58;102047.44;1043137;28;20288;-78
2022/05/02 01:39:36;;;;;;;25.52;18.70;;;;;;;2.94;95.72;102047.72;1044380;28;20299;-79
2022/05/02 01:40:09;;;;;;;17.70;16.13;;;;;;;2.91;95.50;102040.91;1045472;28;20298;-78
2022/05/02 01:40:42;;;;;;;17.50;15.98;;;;;;;2.78;95.29;102043.00;1043563;28;20325;-78
2022/05/02 01:41:14;;;;;;;17.58;15.85;;;;;;;2.92;95.14;102041.75;1035960;28;20292;-77
2022/05/02 01:41:46;;;;;;;18.90;17.00;;;;;;;2.91;95.48;102043.56;1032377;28;20293;-78
2022/05/02 01:42:20;;;;;;;18.10;16.40;;;;;;;2.93;95.45;102041.63;1031615;28;20337;-78
2022/05/02 01:42:51;;;;;;;16.73;15.20;;;;;;;2.94;95.06;102043.28;1033439;28;20807;-78
2022/05/02 01:43:23;;;;;;;17.52;15.82;;;;;;;2.83;95.10;102032.88;1031902;28;20293;-78
2022/05/02 01:43:54;;;;;;;16.38;14.68;;;;;;;2.71;94.96;102039.22;1036299;28;20647;-78
2022/05/02 01:44:26;;;;;;;14.60;12.95;;;;;;;2.74;94.73;102044.22;1039191;28;20304;-78
2022/05/02 01:44:57;;;;;;;14.82;13.35;;;;;;;2.85;94.81;102038.84;1040047;28;20303;-78
2022/05/02 01:45:29;;;;;;;17.13;15.35;;;;;;;2.78;95.21;102030.66;1044194;28;20299;-78
2022/05/02 01:46:01;;;;;;;15.18;13.80;;;;;;;2.50;95.19;102043.75;1041813;28;20300;-79
2022/05/02 01:46:33;;;;;;;16.45;14.95;;;;;;;2.35;95.03;102040.66;1044122;28;20382;-78
2022/05/02 01:47:05;;;;;;;16.38;14.88;;;;;;;2.34;95.98;102044.25;1044496;28;20291;-77
2022/05/02 01:47:37;;;;;;;20.38;16.38;;;;;;;2.40;96.00;102039.28;1040507;28;20650;-78
2022/05/02 01:48:08;;;;;;;17.45;15.63;;;;;;;2.42;96.01;102039.13;1036692;28;20376;-78
2022/05/02 01:48:40;;;;;;;16.70;15.02;;;;;;;2.58;96.57;102042.09;1035945;28;20339;-79
2022/05/02 01:49:12;;;;;;;16.30;14.82;;;;;;;2.54;96.43;102039.88;1031212;28;20715;-79
2022/05/02 01:49:44;;;;;;;20.35;15.10;;;;;;;2.57;96.60;102043.06;1031972;28;20822;-78
2022/05/02 01:50:15;;;;;;;16.77;15.13;;;;;;;2.58;96.79;102050.00;1028523;28;20305;-78
2022/05/02 01:50:47;;;;;;;17.95;15.32;;;;;;;2.56;96.47;102041.41;1035269;28;20364;-78
2022/05/02 01:51:18;;;;;;;18.00;16.23;;;;;;;2.55;96.20;102036.28;1042284;28;20304;-78
2022/05/02 01:51:51;;;;;;;18.85;16.83;;;;;;;2.57;96.20;102043.06;1043993;28;20346;-78
2022/05/02 01:52:25;;;;;;;39.13;17.42;;;;;;;2.57;96.49;102042.25;1043528;28;20724;-79
2022/05/02 01:52:56;;;;;;;44.13;17.50;;;;;;;2.60;96.59;102040.19;1043907;28;20586;-78
2022/05/02 01:53:28;;;;;;;38.70;17.60;;;;;;;2.69;96.60;102041.97;1045309;28;20788;-78
2022/05/02 01:53:59;;;;;;;106.78;22.52;;;;;;;2.75;96.90;102038.84;1044309;28;20298;-78
2022/05/02 01:54:31;;;;;;;120.63;24.95;;;;;;;2.81;96.98;102041.88;1039995;28;20674;-78
2022/05/02 01:55:02;;;;;;;126.38;24.98;;;;;;;2.86;96.47;102023.88;1040412;28;20276;-78
2022/05/02 01:55:34;;;;;;;102.35;23.90;;;;;;;2.88;96.60;102035.94;1039919;28;20308;-78
2022/05/02 01:56:05;;;;;;;103.20;24.30;;;;;;;2.93;96.60;102036.34;1040913;28;20284;-77
2022/05/02 01:56:37;;;;;;;81.70;21.83;;;;;;;2.95;96.71;102033.56;1042214;28;20303;-78
2022/05/02 01:57:08;;;;;;;26.58;17.15;;;;;;;2.96;96.50;102040.50;1044421;28;20296;-78
2022/05/02 01:57:40;;;;;;;21.20;18.20;;;;;;;2.97;96.74;102042.16;1044508;28;20303;-78
2022/05/02 01:58:11;;;;;;;25.70;17.45;;;;;;;3.01;96.30;102043.56;1041855;28;20291;-78
2022/05/02 01:58:43;;;;;;;51.65;19.00;;;;;;;3.03;96.71;102041.66;1044153;28;20666;-78
2022/05/02 01:59:14;;;;;;;85.78;22.98;;;;;;;2.97;96.34;102042.16;1044263;28;20295;-78
2022/05/02 01:59:46;;;;;;;83.05;22.65;;;;;;;3.04;96.43;102035.41;1040134;28;20315;-79
2022/05/02 02:00:18;;;;;;;66.35;21.20;;;;;;;2.87;96.09;102028.19;1031846;28;20308;-78
2022/05/02 02:00:52;;;;;;;60.80;21.42;;;;;;;2.98;96.24;102033.31;1032119;28;20832;-78
2022/05/02 02:01:24;;;;;;;49.45;19.35;;;;;;;2.90;96.39;102034.00;1033797;28;20301;-78
2022/05/02 02:01:56;;;;;;;61.92;21.45;;;;;;;2.85;96.40;102033.56;1038860;28;20311;-78
2022/05/02 02:02:27;;;;;;;59.47;19.15;;;;;;;2.86;96.79;102035.25;1044040;28;20349;-78
2022/05/02 02:03:02;;;;;;;34.53;19.23;;;;;;;2.94;96.74;102037.19;1041102;28;20304;-79
2022/05/02 02:03:34;;;;;;;33.20;19.17;;;;;;;2.64;96.97;102033.66;1043432;28;20315;-79
2022/05/02 02:05:48;;;;;;;40.47;16.42;;;;;;;2.72;98.21;102035.63;1043565;28;20677;-79
2022/05/02 02:06:21;;;;;;;30.77;15.90;;;;;;;2.73;97.85;102040.75;1043477;28;20669;-78
2022/05/02 02:06:53;;;;;;;24.40;15.00;;;;;;;2.73;97.57;102038.09;1044785;28;20287;-79
2022/05/02 02:07:25;;;;;;;32.35;16.67;;;;;;;2.77;97.67;102036.91;1044165;28;20307;-78
2022/05/02 02:07:56;;;;;;;30.75;15.25;;;;;;;2.51;97.94;102043.63;1043546;28;20295;-79
2022/05/02 02:08:30;;;;;;;24.48;15.52;;;;;;;2.42;97.90;102037.34;1039754;28;20296;-78
2022/05/02 02:09:02;;;;;;;21.95;14.95;;;;;;;2.44;98.07;102035.41;1036204;28;20301;-79
2022/05/02 02:09:33;;;;;;;36.00;15.82;;;;;;;2.62;98.45;102030.34;1039648;28;20299;-79
2022/05/02 02:10:05;;;;;;;28.90;15.90;;;;;;;2.70;98.52;102035.75;1040812;28;20389;-79
2022/05/02 02:10:38;;;;;;;18.55;14.52;;;;;;;2.63;98.27;102034.63;1040227;28;20303;-79
2022/05/02 02:11:10;;;;;;;17.90;12.88;;;;;;;2.61;98.32;102033.94;1035227;28;20734;-78
2022/05/02 02:11:42;;;;;;;22.38;13.88;;;;;;;2.65;97.87;102029.25;1031777;28;20313;-79
2022/05/02 02:12:13;;;;;;;24.77;14.55;;;;;;;2.64;97.86;102033.66;1028341;28;20290;-79
2022/05/02 02:12:45;;;;;;;16.42;13.02;;;;;;;2.69;97.73;102034.09;1031936;28;20289;-79
2022/05/02 02:13:17;;;;;;;22.30;11.88;;;;;;;2.64;97.58;102031.03;1034652;28;20336;-79
2022/05/02 02:13:48;;;;;;;14.30;11.82;;;;;;;2.79;97.99;102037.59;1034088;28;20294;-79
2022/05/02 02:14:20;;;;;;;13.48;11.07;;;;;;;2.88;97.41;102029.84;1035260;28;20320;-79
2022/05/02 02:14:51;;;;;;;16.30;12.02;;;;;;;2.94;97.73;102038.00;1036329;28;20301;-78
2022/05/02 02:15:23;;;;;;;19.08;13.18;;;;;;;3.04;97.78;102028.34;1036400;28;20303;-78
2022/05/02 02:15:55;;;;;;;22.75;14.07;;;;;;;3.13;97.70;102026.69;1035717;28;20323;-78
2022/05/02 02:16:26;;;;;;;17.23;13.57;;;;;;;3.10;97.67;102026.97;1039535;28;20303;-79
2022/05/02 02:16:58;;;;;;;17.48;13.38;;;;;;;3.08;97.59;102026.25;1028785;28;20384;-79
2022/05/02 02:17:29;;;;;;;18.15;14.57;;;;;;;3.06;97.11;102031.66;1034542;28;20300;-78
2022/05/02 02:18:01;;;;;;;18.95;13.45;;;;;;;3.10;97.70;102032.22;1035581;28;20312;-78
2022/05/02 02:18:32;;;;;;;16.38;13.00;;;;;;;3.07;96.87;102028.06;1032280;28;20305;-79
2022/05/02 02:19:04;;;;;;;15.82;13.38;;;;;;;2.87;96.82;102022.91;1039943;28;20295;-78
2022/05/02 02:19:36;;;;;;;19.67;13.23;;;;;;;2.83;96.99;102021.53;1042136;28;20292;-79
2022/05/02 02:20:09;;;;;;;14.48;13.05;;;;;;;2.82;97.21;102022.50;1043767;28;20306;-78
2022/05/02 02:20:48;;;;;;;17.45;14.00;;;;;;;2.77;97.32;102023.75;1043435;28;20313;-78
2022/05/02 02:21:20;;;;;;;15.63;12.98;;;;;;;2.82;97.05;102027.75;1039325;28;20288;-78
2022/05/02 02:21:52;;;;;;;13.80;12.45;;;;;;;2.87;97.49;102028.19;1039835;28;20296;-79
2022/05/02 02:22:24;;;;;;;12.20;10.93;;;;;;;2.85;97.63;102016.97;1034868;28;20289;-79
2022/05/02 02:22:56;;;;;;;12.75;11.65;;;;;;;2.77;97.12;102028.19;1035454;28;20737;-78
2022/05/02 02:23:29;;;;;;;12.57;11.30;;;;;;;2.74;97.12;102020.56;1031967;28;20305;-78
2022/05/02 02:24:02;;;;;;;11.43;10.32;;;;;;;2.88;97.06;102028.03;1028392;28;20314;-79
2022/05/02 02:24:34;;;;;;;11.07;9.93;;;;;;;2.95;96.76;102023.06;1032163;28;20660;-78
2022/05/02 02:25:06;;;;;;;11.45;10.35;;;;;;;2.96;97.13;102020.28;1032344;28;20289;-79
2022/05/02 02:25:38;;;;;;;11.85;10.73;;;;;;;2.95;96.85;102028.31;1033024;28;20308;-79
2022/05/02 02:26:09;;;;;;;14.45;13.05;;;;;;;2.76;96.72;102022.09;1035121;28;20304;-78
2022/05/02 02:26:41;;;;;;;11.98;10.85;;;;;;;2.86;97.05;102023.88;1031186;28;20304;-78
2022/05/02 02:27:13;;;;;;;12.85;11.73;;;;;;;2.88;96.82;102027.22;1032799;28;20349;-78
2022/05/02 02:27:44;;;;;;;15.13;12.27;;;;;;;2.74;96.55;102016.13;1035785;28;20307;-78
2022/05/02 02:28:16;;;;;;;15.88;14.52;;;;;;;2.89;97.02;102023.59;1040052;28;20307;-78
2022/05/02 02:28:47;;;;;;;13.02;11.88;;;;;;;2.90;96.38;102020.84;1039805;28;20295;-79
2022/05/02 02:29:19;;;;;;;13.05;11.85;;;;;;;2.97;96.55;102024.56;1039654;28;20292;-78
2022/05/02 02:29:50;;;;;;;14.63;12.40;;;;;;;2.90;96.07;102023.47;1039501;28;20685;-78
2022/05/02 02:30:25;;;;;;;13.88;12.38;;;;;;;2.94;96.38;102026.66;1040864;28;20399;-78
2022/05/02 02:30:57;;;;;;;15.93;13.75;;;;;;;2.87;95.83;102020.28;1036777;28;20315;-78
2022/05/02 02:31:28;;;;;;;17.63;15.05;;;;;;;3.03;96.23;102020.59;1037082;28;20714;-78